sensor_id;sensor_type;location;lat;lon;timestamp;P1;durP1;ratioP1;P2;durP2;ratioP2
16442;SDS011;8331;51.654;14.376;2022-10-17T00:00:41;6.10;;;5.57;;
16442;SDS011;8331;51.654;14.376;2022-10-17T00:03:08;13.33;;;5.60;;
16442;SDS011;8331;51.654;14.376;2022-10-17T00:05:42;9.63;;;6.00;;
16442;SDS011;8331;51.654;14.376;2022-10-17T00:08:09;8.90;;;6.27;;
16442;SDS011;8331;51.654;14.376;2022-10-17T00:10:37;13.47;;;6.17;;
16442;SDS011;8331;51.654;14.376;2022-10-17T00:13:03;6.80;;;5.47;;
16442;SDS011;8331;51.654;14.376;2022-10-17T00:15:30;9.67;;;5.50;;
16442;SDS011;8331;51.654;14.376;2022-10-17T00:17:57;8.57;;;6.03;;
16442;SDS011;8331;51.654;14.376;2022-10-17T00:20:24;6.63;;;5.10;;
16442;SDS011;8331;51.654;14.376;2022-10-17T00:22:50;8.10;;;5.83;;
16442;SDS011;8331;51.654;14.376;2022-10-17T00:25:17;9.93;;;5.50;;
16442;SDS011;8331;51.654;14.376;2022-10-17T00:27:43;7.73;;;5.77;;
16442;SDS011;8331;51.654;14.376;2022-10-17T00:30:13;7.80;;;5.07;;
16442;SDS011;8331;51.654;14.376;2022-10-17T00:32:40;5.93;;;5.40;;
16442;SDS011;8331;51.654;14.376;2022-10-17T00:35:07;5.57;;;5.17;;
16442;SDS011;8331;51.654;14.376;2022-10-17T00:37:34;5.53;;;5.10;;
16442;SDS011;8331;51.654;14.376;2022-10-17T00:40:00;12.17;;;5.97;;
16442;SDS011;8331;51.654;14.376;2022-10-17T00:42:27;5.10;;;4.70;;
16442;SDS011;8331;51.654;14.376;2022-10-17T00:45:06;5.63;;;5.13;;
16442;SDS011;8331;51.654;14.376;2022-10-17T00:47:34;7.50;;;4.77;;
16442;SDS011;8331;51.654;14.376;2022-10-17T00:50:01;10.03;;;5.37;;
16442;SDS011;8331;51.654;14.376;2022-10-17T00:52:28;5.67;;;4.90;;
16442;SDS011;8331;51.654;14.376;2022-10-17T00:55:01;5.97;;;5.40;;
16442;SDS011;8331;51.654;14.376;2022-10-17T00:57:29;5.57;;;5.17;;
16442;SDS011;8331;51.654;14.376;2022-10-17T00:59:57;5.20;;;4.70;;
16442;SDS011;8331;51.654;14.376;2022-10-17T01:02:24;6.33;;;5.30;;
16442;SDS011;8331;51.654;14.376;2022-10-17T01:04:52;8.00;;;5.37;;
16442;SDS011;8331;51.654;14.376;2022-10-17T01:07:20;5.80;;;5.20;;
16442;SDS011;8331;51.654;14.376;2022-10-17T01:09:48;10.80;;;5.37;;
16442;SDS011;8331;51.654;14.376;2022-10-17T01:33:12;7.57;;;4.97;;
16442;SDS011;8331;51.654;14.376;2022-10-17T01:35:53;5.30;;;4.80;;
16442;SDS011;8331;51.654;14.376;2022-10-17T01:38:22;4.70;;;4.40;;
16442;SDS011;8331;51.654;14.376;2022-10-17T01:40:59;5.10;;;4.70;;
16442;SDS011;8331;51.654;14.376;2022-10-17T01:45:58;6.60;;;5.10;;
16442;SDS011;8331;51.654;14.376;2022-10-17T01:48:27;4.90;;;4.47;;
16442;SDS011;8331;51.654;14.376;2022-10-17T01:51:08;6.77;;;4.43;;
16442;SDS011;8331;51.654;14.376;2022-10-17T01:53:38;6.90;;;4.97;;
16442;SDS011;8331;51.654;14.376;2022-10-17T01:56:06;7.87;;;4.73;;
16442;SDS011;8331;51.654;14.376;2022-10-17T01:58:46;5.30;;;4.87;;
16442;SDS011;8331;51.654;14.376;2022-10-17T02:01:16;6.27;;;4.83;;
16442;SDS011;8331;51.654;14.376;2022-10-17T02:03:43;6.83;;;4.90;;
16442;SDS011;8331;51.654;14.376;2022-10-17T02:06:11;5.40;;;5.00;;
16442;SDS011;8331;51.654;14.376;2022-10-17T02:08:45;8.70;;;6.00;;
16442;SDS011;8331;51.654;14.376;2022-10-17T02:11:16;8.07;;;6.20;;
16442;SDS011;8331;51.654;14.376;2022-10-17T02:19:52;6.67;;;5.53;;
16442;SDS011;8331;51.654;14.376;2022-10-17T02:22:11;9.73;;;5.50;;
16442;SDS011;8331;51.654;14.376;2022-10-17T02:27:33;6.47;;;4.93;;
16442;SDS011;8331;51.654;14.376;2022-10-17T02:30:04;5.37;;;4.87;;
16442;SDS011;8331;51.654;14.376;2022-10-17T02:34:58;5.13;;;4.60;;
16442;SDS011;8331;51.654;14.376;2022-10-17T02:37:27;8.10;;;5.23;;
16442;SDS011;8331;51.654;14.376;2022-10-17T02:39:56;5.87;;;5.03;;
16442;SDS011;8331;51.654;14.376;2022-10-17T02:42:23;5.20;;;4.70;;
16442;SDS011;8331;51.654;14.376;2022-10-17T02:44:50;5.20;;;4.57;;
16442;SDS011;8331;51.654;14.376;2022-10-17T02:47:38;5.27;;;4.77;;
16442;SDS011;8331;51.654;14.376;2022-10-17T02:50:07;8.23;;;4.73;;
16442;SDS011;8331;51.654;14.376;2022-10-17T02:52:41;5.63;;;4.70;;
16442;SDS011;8331;51.654;14.376;2022-10-17T02:55:11;10.43;;;4.70;;
16442;SDS011;8331;51.654;14.376;2022-10-17T02:57:52;4.90;;;4.50;;
16442;SDS011;8331;51.654;14.376;2022-10-17T03:00:21;5.07;;;4.47;;
16442;SDS011;8331;51.654;14.376;2022-10-17T03:02:49;5.23;;;4.77;;
16442;SDS011;8331;51.654;14.376;2022-10-17T03:05:18;5.90;;;5.40;;
16442;SDS011;8331;51.654;14.376;2022-10-17T03:07:44;8.30;;;4.70;;
16442;SDS011;8331;51.654;14.376;2022-10-17T03:10:11;5.07;;;4.67;;
16442;SDS011;8331;51.654;14.376;2022-10-17T03:12:38;6.67;;;5.27;;
16442;SDS011;8331;51.654;14.376;2022-10-17T03:15:05;10.27;;;4.87;;
16442;SDS011;8331;51.654;14.376;2022-10-17T03:17:32;6.00;;;5.17;;
16442;SDS011;8331;51.654;14.376;2022-10-17T03:19:59;6.07;;;5.57;;
16442;SDS011;8331;51.654;14.376;2022-10-17T03:22:28;7.13;;;5.20;;
16442;SDS011;8331;51.654;14.376;2022-10-17T03:24:57;6.25;;;5.70;;
16442;SDS011;8331;51.654;14.376;2022-10-17T03:27:24;6.80;;;6.10;;
16442;SDS011;8331;51.654;14.376;2022-10-17T03:29:50;10.10;;;6.53;;
16442;SDS011;8331;51.654;14.376;2022-10-17T03:32:18;9.07;;;6.30;;
16442;SDS011;8331;51.654;14.376;2022-10-17T03:34:45;11.33;;;6.50;;
16442;SDS011;8331;51.654;14.376;2022-10-17T03:37:12;8.03;;;6.63;;
16442;SDS011;8331;51.654;14.376;2022-10-17T03:39:39;8.53;;;6.80;;
16442;SDS011;8331;51.654;14.376;2022-10-17T03:42:06;7.57;;;6.87;;
16442;SDS011;8331;51.654;14.376;2022-10-17T03:44:33;8.30;;;7.50;;
16442;SDS011;8331;51.654;14.376;2022-10-17T03:46:59;8.17;;;7.37;;
16442;SDS011;8331;51.654;14.376;2022-10-17T03:49:26;10.40;;;9.30;;
16442;SDS011;8331;51.654;14.376;2022-10-17T03:51:52;10.10;;;9.10;;
16442;SDS011;8331;51.654;14.376;2022-10-17T03:54:19;12.17;;;9.50;;
16442;SDS011;8331;51.654;14.376;2022-10-17T03:56:45;12.00;;;10.40;;
16442;SDS011;8331;51.654;14.376;2022-10-17T03:59:16;11.47;;;10.20;;
16442;SDS011;8331;51.654;14.376;2022-10-17T04:01:49;13.77;;;10.97;;
16442;SDS011;8331;51.654;14.376;2022-10-17T04:04:17;15.80;;;11.13;;
16442;SDS011;8331;51.654;14.376;2022-10-17T04:06:43;12.93;;;10.40;;
16442;SDS011;8331;51.654;14.376;2022-10-17T04:09:10;12.17;;;10.57;;
16442;SDS011;8331;51.654;14.376;2022-10-17T04:11:57;12.33;;;9.90;;
16442;SDS011;8331;51.654;14.376;2022-10-17T04:14:23;12.17;;;10.87;;
16442;SDS011;8331;51.654;14.376;2022-10-17T04:16:50;14.13;;;11.70;;
16442;SDS011;8331;51.654;14.376;2022-10-17T04:19:19;14.10;;;12.60;;
16442;SDS011;8331;51.654;14.376;2022-10-17T04:21:46;14.73;;;12.50;;
16442;SDS011;8331;51.654;14.376;2022-10-17T04:24:13;15.17;;;12.53;;
16442;SDS011;8331;51.654;14.376;2022-10-17T04:26:42;16.87;;;12.60;;
16442;SDS011;8331;51.654;14.376;2022-10-17T04:29:09;17.20;;;13.33;;
16442;SDS011;8331;51.654;14.376;2022-10-17T04:31:37;15.57;;;12.90;;
16442;SDS011;8331;51.654;14.376;2022-10-17T04:34:13;15.57;;;13.00;;
16442;SDS011;8331;51.654;14.376;2022-10-17T04:36:39;15.80;;;12.77;;
16442;SDS011;8331;51.654;14.376;2022-10-17T04:39:06;16.80;;;13.80;;
16442;SDS011;8331;51.654;14.376;2022-10-17T04:41:34;16.83;;;14.00;;
16442;SDS011;8331;51.654;14.376;2022-10-17T04:44:01;16.87;;;14.10;;
16442;SDS011;8331;51.654;14.376;2022-10-17T04:46:32;18.20;;;15.03;;
16442;SDS011;8331;51.654;14.376;2022-10-17T04:48:58;17.73;;;15.53;;
16442;SDS011;8331;51.654;14.376;2022-10-17T04:51:25;17.70;;;14.03;;
16442;SDS011;8331;51.654;14.376;2022-10-17T04:54:16;19.70;;;16.37;;
16442;SDS011;8331;51.654;14.376;2022-10-17T04:56:46;19.27;;;16.47;;
16442;SDS011;8331;51.654;14.376;2022-10-17T04:59:13;19.73;;;16.90;;
16442;SDS011;8331;51.654;14.376;2022-10-17T05:01:42;22.00;;;17.53;;
16442;SDS011;8331;51.654;14.376;2022-10-17T05:04:09;22.50;;;18.70;;
16442;SDS011;8331;51.654;14.376;2022-10-17T05:06:35;27.53;;;20.53;;
16442;SDS011;8331;51.654;14.376;2022-10-17T05:09:34;26.20;;;19.07;;
16442;SDS011;8331;51.654;14.376;2022-10-17T05:12:00;29.03;;;20.93;;
16442;SDS011;8331;51.654;14.376;2022-10-17T05:14:32;27.93;;;20.83;;
16442;SDS011;8331;51.654;14.376;2022-10-17T05:16:58;26.30;;;20.57;;
16442;SDS011;8331;51.654;14.376;2022-10-17T05:19:27;27.60;;;20.37;;
16442;SDS011;8331;51.654;14.376;2022-10-17T05:21:53;26.07;;;21.03;;
16442;SDS011;8331;51.654;14.376;2022-10-17T05:24:20;29.57;;;21.43;;
16442;SDS011;8331;51.654;14.376;2022-10-17T05:26:48;25.47;;;20.90;;
16442;SDS011;8331;51.654;14.376;2022-10-17T05:29:15;25.83;;;21.37;;
16442;SDS011;8331;51.654;14.376;2022-10-17T05:31:46;27.23;;;21.73;;
16442;SDS011;8331;51.654;14.376;2022-10-17T05:34:13;27.63;;;20.30;;
16442;SDS011;8331;51.654;14.376;2022-10-17T05:36:40;25.07;;;21.40;;
16442;SDS011;8331;51.654;14.376;2022-10-17T05:39:07;26.50;;;21.10;;
16442;SDS011;8331;51.654;14.376;2022-10-17T05:41:35;28.50;;;21.77;;
16442;SDS011;8331;51.654;14.376;2022-10-17T05:44:03;25.70;;;21.70;;
16442;SDS011;8331;51.654;14.376;2022-10-17T05:46:39;26.60;;;21.37;;
16442;SDS011;8331;51.654;14.376;2022-10-17T05:49:08;25.50;;;22.30;;
16442;SDS011;8331;51.654;14.376;2022-10-17T05:51:55;29.63;;;22.97;;
16442;SDS011;8331;51.654;14.376;2022-10-17T05:54:21;32.17;;;23.33;;
16442;SDS011;8331;51.654;14.376;2022-10-17T05:56:51;28.17;;;23.43;;
16442;SDS011;8331;51.654;14.376;2022-10-17T05:59:20;29.37;;;24.13;;
16442;SDS011;8331;51.654;14.376;2022-10-17T06:01:58;33.57;;;25.77;;
16442;SDS011;8331;51.654;14.376;2022-10-17T06:04:25;35.63;;;25.97;;
16442;SDS011;8331;51.654;14.376;2022-10-17T06:06:53;36.03;;;27.40;;
16442;SDS011;8331;51.654;14.376;2022-10-17T06:09:22;36.93;;;27.60;;
16442;SDS011;8331;51.654;14.376;2022-10-17T06:11:51;33.13;;;27.47;;
16442;SDS011;8331;51.654;14.376;2022-10-17T06:14:18;33.17;;;26.50;;
16442;SDS011;8331;51.654;14.376;2022-10-17T06:16:47;33.83;;;26.87;;
16442;SDS011;8331;51.654;14.376;2022-10-17T06:19:14;37.90;;;28.13;;
16442;SDS011;8331;51.654;14.376;2022-10-17T06:21:41;37.63;;;27.27;;
16442;SDS011;8331;51.654;14.376;2022-10-17T06:24:13;31.27;;;25.70;;
16442;SDS011;8331;51.654;14.376;2022-10-17T06:26:41;37.50;;;27.23;;
16442;SDS011;8331;51.654;14.376;2022-10-17T06:29:09;32.23;;;25.97;;
16442;SDS011;8331;51.654;14.376;2022-10-17T06:31:41;38.13;;;28.10;;
16442;SDS011;8331;51.654;14.376;2022-10-17T06:34:08;38.67;;;29.13;;
16442;SDS011;8331;51.654;14.376;2022-10-17T06:36:36;37.60;;;28.57;;
16442;SDS011;8331;51.654;14.376;2022-10-17T06:39:04;40.80;;;28.97;;
16442;SDS011;8331;51.654;14.376;2022-10-17T06:41:36;36.70;;;28.83;;
16442;SDS011;8331;51.654;14.376;2022-10-17T06:44:06;36.60;;;27.17;;
16442;SDS011;8331;51.654;14.376;2022-10-17T06:46:54;36.97;;;26.73;;
16442;SDS011;8331;51.654;14.376;2022-10-17T06:49:21;30.87;;;25.93;;
16442;SDS011;8331;51.654;14.376;2022-10-17T06:51:57;35.47;;;26.47;;
16442;SDS011;8331;51.654;14.376;2022-10-17T06:54:32;31.23;;;26.40;;
16442;SDS011;8331;51.654;14.376;2022-10-17T06:57:19;34.10;;;26.43;;
16442;SDS011;8331;51.654;14.376;2022-10-17T07:00:04;33.30;;;26.93;;
16442;SDS011;8331;51.654;14.376;2022-10-17T07:02:38;36.80;;;26.27;;
16442;SDS011;8331;51.654;14.376;2022-10-17T07:05:05;39.37;;;28.27;;
16442;SDS011;8331;51.654;14.376;2022-10-17T07:07:33;30.93;;;26.27;;
16442;SDS011;8331;51.654;14.376;2022-10-17T07:09:59;31.10;;;26.37;;
16442;SDS011;8331;51.654;14.376;2022-10-17T07:12:26;34.50;;;27.63;;
16442;SDS011;8331;51.654;14.376;2022-10-17T07:14:53;28.30;;;25.13;;
16442;SDS011;8331;51.654;14.376;2022-10-17T07:17:19;39.40;;;26.17;;
16442;SDS011;8331;51.654;14.376;2022-10-17T07:19:46;30.63;;;25.57;;
16442;SDS011;8331;51.654;14.376;2022-10-17T07:22:12;28.30;;;24.20;;
16442;SDS011;8331;51.654;14.376;2022-10-17T07:24:42;31.83;;;24.23;;
16442;SDS011;8331;51.654;14.376;2022-10-17T07:27:32;30.33;;;24.20;;
16442;SDS011;8331;51.654;14.376;2022-10-17T07:29:58;34.37;;;24.67;;
16442;SDS011;8331;51.654;14.376;2022-10-17T07:32:37;29.20;;;25.13;;
16442;SDS011;8331;51.654;14.376;2022-10-17T07:35:04;28.63;;;24.27;;
16442;SDS011;8331;51.654;14.376;2022-10-17T07:37:31;29.90;;;24.53;;
16442;SDS011;8331;51.654;14.376;2022-10-17T07:39:59;28.47;;;24.37;;
16442;SDS011;8331;51.654;14.376;2022-10-17T07:42:25;29.43;;;23.60;;
16442;SDS011;8331;51.654;14.376;2022-10-17T07:44:53;31.57;;;25.10;;
16442;SDS011;8331;51.654;14.376;2022-10-17T07:47:21;29.27;;;23.13;;
16442;SDS011;8331;51.654;14.376;2022-10-17T07:49:48;29.50;;;24.63;;
16442;SDS011;8331;51.654;14.376;2022-10-17T07:52:15;27.80;;;23.00;;
16442;SDS011;8331;51.654;14.376;2022-10-17T07:54:42;26.27;;;22.67;;
16442;SDS011;8331;51.654;14.376;2022-10-17T07:57:09;25.93;;;22.27;;
16442;SDS011;8331;51.654;14.376;2022-10-17T07:59:35;25.87;;;21.20;;
16442;SDS011;8331;51.654;14.376;2022-10-17T08:02:02;26.03;;;21.20;;
16442;SDS011;8331;51.654;14.376;2022-10-17T08:04:29;24.47;;;20.43;;
16442;SDS011;8331;51.654;14.376;2022-10-17T08:06:55;22.00;;;19.80;;
16442;SDS011;8331;51.654;14.376;2022-10-17T08:09:42;28.37;;;21.37;;
16442;SDS011;8331;51.654;14.376;2022-10-17T08:12:09;21.93;;;19.47;;
16442;SDS011;8331;51.654;14.376;2022-10-17T08:14:36;24.60;;;19.60;;
16442;SDS011;8331;51.654;14.376;2022-10-17T08:17:02;21.50;;;19.13;;
16442;SDS011;8331;51.654;14.376;2022-10-17T08:19:28;21.60;;;18.43;;
16442;SDS011;8331;51.654;14.376;2022-10-17T08:21:55;25.53;;;18.80;;
16442;SDS011;8331;51.654;14.376;2022-10-17T08:24:23;20.47;;;18.20;;
16442;SDS011;8331;51.654;14.376;2022-10-17T08:26:50;22.60;;;18.90;;
16442;SDS011;8331;51.654;14.376;2022-10-17T08:29:18;20.63;;;18.53;;
16442;SDS011;8331;51.654;14.376;2022-10-17T08:31:45;20.33;;;18.33;;
16442;SDS011;8331;51.654;14.376;2022-10-17T08:34:15;19.07;;;17.17;;
16442;SDS011;8331;51.654;14.376;2022-10-17T08:36:41;22.57;;;17.93;;
16442;SDS011;8331;51.654;14.376;2022-10-17T08:39:08;20.77;;;18.70;;
16442;SDS011;8331;51.654;14.376;2022-10-17T08:46:58;18.77;;;16.93;;
16442;SDS011;8331;51.654;14.376;2022-10-17T08:52:51;22.77;;;18.17;;
16442;SDS011;8331;51.654;14.376;2022-10-17T08:54:58;19.27;;;17.13;;
16442;SDS011;8331;51.654;14.376;2022-10-17T08:57:24;19.27;;;16.87;;
16442;SDS011;8331;51.654;14.376;2022-10-17T08:59:52;23.73;;;16.20;;
16442;SDS011;8331;51.654;14.376;2022-10-17T09:02:30;20.10;;;18.00;;
16442;SDS011;8331;51.654;14.376;2022-10-17T09:08:06;17.50;;;15.80;;
16442;SDS011;8331;51.654;14.376;2022-10-17T09:13:23;17.80;;;15.97;;
16442;SDS011;8331;51.654;14.376;2022-10-17T09:15:56;17.30;;;15.30;;
16442;SDS011;8331;51.654;14.376;2022-10-17T09:18:27;17.07;;;15.27;;
16442;SDS011;8331;51.654;14.376;2022-10-17T09:21:18;19.97;;;16.23;;
16442;SDS011;8331;51.654;14.376;2022-10-17T09:23:48;16.50;;;14.83;;
16442;SDS011;8331;51.654;14.376;2022-10-17T09:26:24;17.73;;;15.93;;
16442;SDS011;8331;51.654;14.376;2022-10-17T09:28:52;16.20;;;14.63;;
16442;SDS011;8331;51.654;14.376;2022-10-17T09:31:21;17.60;;;15.83;;
16442;SDS011;8331;51.654;14.376;2022-10-17T09:33:49;17.13;;;15.43;;
16442;SDS011;8331;51.654;14.376;2022-10-17T09:36:32;19.33;;;16.87;;
16442;SDS011;8331;51.654;14.376;2022-10-17T09:39:00;17.47;;;15.77;;
16442;SDS011;8331;51.654;14.376;2022-10-17T09:49:17;18.80;;;16.77;;
16442;SDS011;8331;51.654;14.376;2022-10-17T09:51:44;17.63;;;16.03;;
16442;SDS011;8331;51.654;14.376;2022-10-17T09:54:18;18.70;;;16.80;;
16442;SDS011;8331;51.654;14.376;2022-10-17T09:56:56;19.03;;;17.13;;
16442;SDS011;8331;51.654;14.376;2022-10-17T10:02:22;21.07;;;16.80;;
16442;SDS011;8331;51.654;14.376;2022-10-17T10:04:53;17.60;;;15.93;;
16442;SDS011;8331;51.654;14.376;2022-10-17T10:07:36;18.40;;;16.53;;
16442;SDS011;8331;51.654;14.376;2022-10-17T10:10:03;17.13;;;15.50;;
16442;SDS011;8331;51.654;14.376;2022-10-17T10:12:34;17.53;;;15.73;;
16442;SDS011;8331;51.654;14.376;2022-10-17T10:15:01;16.80;;;15.10;;
16442;SDS011;8331;51.654;14.376;2022-10-17T10:20:05;15.50;;;14.10;;
16442;SDS011;8331;51.654;14.376;2022-10-17T10:25:34;15.53;;;14.13;;
16442;SDS011;8331;51.654;14.376;2022-10-17T10:28:00;14.73;;;13.23;;
16442;SDS011;8331;51.654;14.376;2022-10-17T10:30:28;16.13;;;14.37;;
16442;SDS011;8331;51.654;14.376;2022-10-17T10:32:55;16.10;;;14.50;;
16442;SDS011;8331;51.654;14.376;2022-10-17T10:35:23;15.43;;;13.97;;
16442;SDS011;8331;51.654;14.376;2022-10-17T10:37:53;15.63;;;14.03;;
16442;SDS011;8331;51.654;14.376;2022-10-17T10:42:48;15.50;;;13.20;;
16442;SDS011;8331;51.654;14.376;2022-10-17T10:48:05;14.13;;;12.83;;
16442;SDS011;8331;51.654;14.376;2022-10-17T10:50:42;13.97;;;12.57;;
16442;SDS011;8331;51.654;14.376;2022-10-17T10:55:47;13.40;;;12.13;;
16442;SDS011;8331;51.654;14.376;2022-10-17T10:58:28;13.13;;;11.97;;
16442;SDS011;8331;51.654;14.376;2022-10-17T11:00:57;13.97;;;12.77;;
16442;SDS011;8331;51.654;14.376;2022-10-17T11:03:28;13.23;;;12.13;;
16442;SDS011;8331;51.654;14.376;2022-10-17T11:06:03;13.57;;;12.30;;
16442;SDS011;8331;51.654;14.376;2022-10-17T11:13:36;13.90;;;12.50;;
16442;SDS011;8331;51.654;14.376;2022-10-17T11:18:38;12.93;;;11.83;;
16442;SDS011;8331;51.654;14.376;2022-10-17T11:26:41;13.00;;;11.67;;
16442;SDS011;8331;51.654;14.376;2022-10-17T11:29:10;13.87;;;12.43;;
16442;SDS011;8331;51.654;14.376;2022-10-17T11:31:39;13.43;;;12.03;;
16442;SDS011;8331;51.654;14.376;2022-10-17T11:34:14;13.90;;;11.67;;
16442;SDS011;8331;51.654;14.376;2022-10-17T11:36:45;13.47;;;11.47;;
16442;SDS011;8331;51.654;14.376;2022-10-17T11:42:11;12.43;;;10.70;;
16442;SDS011;8331;51.654;14.376;2022-10-17T11:44:40;11.80;;;10.70;;
16442;SDS011;8331;51.654;14.376;2022-10-17T11:49:40;11.00;;;9.90;;
16442;SDS011;8331;51.654;14.376;2022-10-17T11:52:23;11.33;;;10.37;;
16442;SDS011;8331;51.654;14.376;2022-10-17T12:08:19;11.10;;;10.00;;
16442;SDS011;8331;51.654;14.376;2022-10-17T12:14:09;9.83;;;9.10;;
16442;SDS011;8331;51.654;14.376;2022-10-17T12:18:44;10.53;;;9.63;;
16442;SDS011;8331;51.654;14.376;2022-10-17T12:21:11;11.03;;;9.73;;
16442;SDS011;8331;51.654;14.376;2022-10-17T12:23:37;10.77;;;9.67;;
16442;SDS011;8331;51.654;14.376;2022-10-17T12:26:08;11.70;;;10.23;;
16442;SDS011;8331;51.654;14.376;2022-10-17T12:33:32;10.60;;;9.60;;
16442;SDS011;8331;51.654;14.376;2022-10-17T12:41:15;9.50;;;8.70;;
16442;SDS011;8331;51.654;14.376;2022-10-17T12:43:43;10.80;;;9.83;;
16442;SDS011;8331;51.654;14.376;2022-10-17T12:46:10;10.73;;;9.63;;
16442;SDS011;8331;51.654;14.376;2022-10-17T12:54:10;10.80;;;9.87;;
16442;SDS011;8331;51.654;14.376;2022-10-17T12:56:44;10.37;;;9.37;;
16442;SDS011;8331;51.654;14.376;2022-10-17T12:59:21;10.10;;;9.17;;
16442;SDS011;8331;51.654;14.376;2022-10-17T13:01:50;10.77;;;9.77;;
16442;SDS011;8331;51.654;14.376;2022-10-17T13:04:18;12.20;;;9.97;;
16442;SDS011;8331;51.654;14.376;2022-10-17T13:06:46;10.27;;;9.40;;
16442;SDS011;8331;51.654;14.376;2022-10-17T13:09:24;10.63;;;9.03;;
16442;SDS011;8331;51.654;14.376;2022-10-17T13:11:51;10.30;;;9.50;;
16442;SDS011;8331;51.654;14.376;2022-10-17T13:14:19;12.77;;;10.23;;
16442;SDS011;8331;51.654;14.376;2022-10-17T13:16:57;13.73;;;9.57;;
16442;SDS011;8331;51.654;14.376;2022-10-17T13:19:31;10.40;;;9.57;;
16442;SDS011;8331;51.654;14.376;2022-10-17T13:22:14;10.80;;;9.67;;
16442;SDS011;8331;51.654;14.376;2022-10-17T13:24:41;12.03;;;9.60;;
16442;SDS011;8331;51.654;14.376;2022-10-17T13:27:28;11.20;;;9.17;;
16442;SDS011;8331;51.654;14.376;2022-10-17T13:29:56;11.47;;;9.90;;
16442;SDS011;8331;51.654;14.376;2022-10-17T13:32:23;10.40;;;9.60;;
16442;SDS011;8331;51.654;14.376;2022-10-17T13:35:07;10.70;;;9.50;;
16442;SDS011;8331;51.654;14.376;2022-10-17T13:37:34;11.17;;;10.17;;
16442;SDS011;8331;51.654;14.376;2022-10-17T13:40:00;12.40;;;9.40;;
16442;SDS011;8331;51.654;14.376;2022-10-17T13:42:42;10.60;;;9.60;;
16442;SDS011;8331;51.654;14.376;2022-10-17T13:45:31;9.90;;;9.00;;
16442;SDS011;8331;51.654;14.376;2022-10-17T13:47:57;11.47;;;10.17;;
16442;SDS011;8331;51.654;14.376;2022-10-17T13:50:35;17.90;;;10.40;;
16442;SDS011;8331;51.654;14.376;2022-10-17T13:53:14;12.67;;;9.90;;
16442;SDS011;8331;51.654;14.376;2022-10-17T13:58:47;11.83;;;10.63;;
16442;SDS011;8331;51.654;14.376;2022-10-17T14:01:14;11.07;;;10.17;;
16442;SDS011;8331;51.654;14.376;2022-10-17T14:03:42;10.87;;;9.83;;
16442;SDS011;8331;51.654;14.376;2022-10-17T14:11:16;11.17;;;10.17;;
16442;SDS011;8331;51.654;14.376;2022-10-17T14:13:46;11.70;;;10.70;;
16442;SDS011;8331;51.654;14.376;2022-10-17T14:16:13;14.33;;;10.17;;
16442;SDS011;8331;51.654;14.376;2022-10-17T14:18:40;11.57;;;10.50;;
16442;SDS011;8331;51.654;14.376;2022-10-17T14:21:09;11.70;;;10.63;;
16442;SDS011;8331;51.654;14.376;2022-10-17T14:24:13;12.40;;;11.40;;
16442;SDS011;8331;51.654;14.376;2022-10-17T14:26:49;12.40;;;10.67;;
16442;SDS011;8331;51.654;14.376;2022-10-17T14:29:21;12.87;;;11.53;;
16442;SDS011;8331;51.654;14.376;2022-10-17T14:31:47;12.80;;;11.60;;
16442;SDS011;8331;51.654;14.376;2022-10-17T14:34:19;12.97;;;11.70;;
16442;SDS011;8331;51.654;14.376;2022-10-17T14:36:46;13.60;;;12.23;;
16442;SDS011;8331;51.654;14.376;2022-10-17T14:39:19;14.07;;;12.37;;
16442;SDS011;8331;51.654;14.376;2022-10-17T14:41:46;13.47;;;12.27;;
16442;SDS011;8331;51.654;14.376;2022-10-17T14:44:18;13.70;;;12.37;;
16442;SDS011;8331;51.654;14.376;2022-10-17T14:46:45;13.70;;;12.50;;
16442;SDS011;8331;51.654;14.376;2022-10-17T14:49:18;15.87;;;13.23;;
16442;SDS011;8331;51.654;14.376;2022-10-17T14:52:12;13.33;;;12.13;;
16442;SDS011;8331;51.654;14.376;2022-10-17T14:54:48;13.33;;;12.23;;
16442;SDS011;8331;51.654;14.376;2022-10-17T14:57:16;13.50;;;12.23;;
16442;SDS011;8331;51.654;14.376;2022-10-17T14:59:43;17.83;;;13.60;;
16442;SDS011;8331;51.654;14.376;2022-10-17T15:02:26;14.20;;;12.90;;
16442;SDS011;8331;51.654;14.376;2022-10-17T15:04:53;14.50;;;12.97;;
16442;SDS011;8331;51.654;14.376;2022-10-17T15:07:20;13.67;;;12.50;;
16442;SDS011;8331;51.654;14.376;2022-10-17T15:09:47;14.43;;;12.97;;
16442;SDS011;8331;51.654;14.376;2022-10-17T15:12:15;15.27;;;13.23;;
16442;SDS011;8331;51.654;14.376;2022-10-17T15:14:42;14.27;;;12.83;;
16442;SDS011;8331;51.654;14.376;2022-10-17T15:17:16;15.53;;;14.03;;
16442;SDS011;8331;51.654;14.376;2022-10-17T15:19:44;17.93;;;12.90;;
16442;SDS011;8331;51.654;14.376;2022-10-17T15:22:10;14.03;;;12.57;;
16442;SDS011;8331;51.654;14.376;2022-10-17T15:24:36;13.13;;;11.93;;
16442;SDS011;8331;51.654;14.376;2022-10-17T15:27:05;14.80;;;13.27;;
16442;SDS011;8331;51.654;14.376;2022-10-17T15:29:32;14.13;;;12.67;;
16442;SDS011;8331;51.654;14.376;2022-10-17T15:31:59;13.73;;;12.57;;
16442;SDS011;8331;51.654;14.376;2022-10-17T15:34:25;15.50;;;13.87;;
16442;SDS011;8331;51.654;14.376;2022-10-17T15:36:52;15.30;;;13.70;;
16442;SDS011;8331;51.654;14.376;2022-10-17T15:39:19;14.47;;;13.07;;
16442;SDS011;8331;51.654;14.376;2022-10-17T15:41:46;15.83;;;14.53;;
16442;SDS011;8331;51.654;14.376;2022-10-17T15:44:13;15.97;;;14.13;;
16442;SDS011;8331;51.654;14.376;2022-10-17T15:46:40;18.67;;;14.60;;
16442;SDS011;8331;51.654;14.376;2022-10-17T15:49:09;16.73;;;15.20;;
16442;SDS011;8331;51.654;14.376;2022-10-17T15:51:36;16.50;;;14.87;;
16442;SDS011;8331;51.654;14.376;2022-10-17T15:54:03;16.67;;;14.90;;
16442;SDS011;8331;51.654;14.376;2022-10-17T15:56:32;17.00;;;14.67;;
16442;SDS011;8331;51.654;14.376;2022-10-17T15:59:02;16.67;;;14.97;;
16442;SDS011;8331;51.654;14.376;2022-10-17T16:01:29;19.53;;;14.67;;
16442;SDS011;8331;51.654;14.376;2022-10-17T16:03:56;15.70;;;14.00;;
16442;SDS011;8331;51.654;14.376;2022-10-17T16:06:23;18.47;;;14.67;;
16442;SDS011;8331;51.654;14.376;2022-10-17T16:08:49;16.37;;;14.77;;
16442;SDS011;8331;51.654;14.376;2022-10-17T16:11:26;17.27;;;14.53;;
16442;SDS011;8331;51.654;14.376;2022-10-17T16:13:54;19.93;;;14.90;;
16442;SDS011;8331;51.654;14.376;2022-10-17T16:16:22;16.40;;;14.33;;
16442;SDS011;8331;51.654;14.376;2022-10-17T16:18:48;16.17;;;14.00;;
16442;SDS011;8331;51.654;14.376;2022-10-17T16:21:15;19.57;;;14.80;;
16442;SDS011;8331;51.654;14.376;2022-10-17T16:23:42;20.73;;;14.87;;
16442;SDS011;8331;51.654;14.376;2022-10-17T16:26:09;16.07;;;14.40;;
16442;SDS011;8331;51.654;14.376;2022-10-17T16:28:35;23.00;;;14.20;;
16442;SDS011;8331;51.654;14.376;2022-10-17T16:31:02;15.93;;;14.00;;
16442;SDS011;8331;51.654;14.376;2022-10-17T16:33:28;21.83;;;15.47;;
16442;SDS011;8331;51.654;14.376;2022-10-17T16:35:56;16.67;;;14.80;;
16442;SDS011;8331;51.654;14.376;2022-10-17T16:38:23;26.47;;;14.93;;
16442;SDS011;8331;51.654;14.376;2022-10-17T16:40:49;16.80;;;15.07;;
16442;SDS011;8331;51.654;14.376;2022-10-17T16:43:16;16.43;;;14.73;;
16442;SDS011;8331;51.654;14.376;2022-10-17T16:45:42;16.57;;;14.53;;
16442;SDS011;8331;51.654;14.376;2022-10-17T16:48:09;17.97;;;14.67;;
16442;SDS011;8331;51.654;14.376;2022-10-17T16:50:37;17.07;;;14.57;;
16442;SDS011;8331;51.654;14.376;2022-10-17T16:53:04;15.83;;;14.23;;
16442;SDS011;8331;51.654;14.376;2022-10-17T16:55:30;16.13;;;14.23;;
16442;SDS011;8331;51.654;14.376;2022-10-17T16:57:56;15.80;;;14.40;;